sensor_id;sensor_type;location;lat;lon;timestamp;P1;durP1;ratioP1;P2;durP2;ratioP2
15082;SDS011;7640;53.116;6.878;2024-01-07T00:01:45;24.77;;;14.67;;
15082;SDS011;7640;53.116;6.878;2024-01-07T00:04:15;22.83;;;14.03;;
15082;SDS011;7640;53.116;6.878;2024-01-07T00:06:45;21.77;;;13.70;;
15082;SDS011;7640;53.116;6.878;2024-01-07T00:09:16;21.20;;;12.73;;
15082;SDS011;7640;53.116;6.878;2024-01-07T00:11:45;21.93;;;12.73;;
15082;SDS011;7640;53.116;6.878;2024-01-07T00:14:14;22.47;;;12.80;;
15082;SDS011;7640;53.116;6.878;2024-01-07T00:16:43;21.73;;;12.03;;
15082;SDS011;7640;53.116;6.878;2024-01-07T00:19:12;23.57;;;13.00;;
15082;SDS011;7640;53.116;6.878;2024-01-07T00:21:41;20.03;;;11.60;;
15082;SDS011;7640;53.116;6.878;2024-01-07T00:24:10;20.40;;;11.77;;
15082;SDS011;7640;53.116;6.878;2024-01-07T00:26:40;18.73;;;12.17;;
15082;SDS011;7640;53.116;6.878;2024-01-07T00:29:09;20.03;;;11.57;;
15082;SDS011;7640;53.116;6.878;2024-01-07T00:31:37;17.93;;;11.93;;
15082;SDS011;7640;53.116;6.878;2024-01-07T00:34:06;18.10;;;11.70;;
15082;SDS011;7640;53.116;6.878;2024-01-07T00:36:34;20.00;;;11.63;;
15082;SDS011;7640;53.116;6.878;2024-01-07T00:39:03;17.73;;;11.47;;
15082;SDS011;7640;53.116;6.878;2024-01-07T00:41:33;17.77;;;11.90;;
15082;SDS011;7640;53.116;6.878;2024-01-07T00:44:03;20.10;;;12.20;;
15082;SDS011;7640;53.116;6.878;2024-01-07T00:46:32;20.93;;;11.57;;
15082;SDS011;7640;53.116;6.878;2024-01-07T00:49:01;19.53;;;11.43;;
15082;SDS011;7640;53.116;6.878;2024-01-07T00:51:29;17.67;;;10.93;;
15082;SDS011;7640;53.116;6.878;2024-01-07T00:53:58;20.67;;;11.63;;
15082;SDS011;7640;53.116;6.878;2024-01-07T00:56:28;18.77;;;10.93;;
15082;SDS011;7640;53.116;6.878;2024-01-07T00:58:58;18.53;;;10.90;;
15082;SDS011;7640;53.116;6.878;2024-01-07T01:01:30;20.60;;;12.33;;
15082;SDS011;7640;53.116;6.878;2024-01-07T01:03:59;17.53;;;10.93;;
15082;SDS011;7640;53.116;6.878;2024-01-07T01:06:27;19.57;;;10.93;;
15082;SDS011;7640;53.116;6.878;2024-01-07T01:08:56;18.53;;;11.27;;
15082;SDS011;7640;53.116;6.878;2024-01-07T01:11:24;17.17;;;11.03;;
15082;SDS011;7640;53.116;6.878;2024-01-07T01:13:53;20.73;;;11.50;;
15082;SDS011;7640;53.116;6.878;2024-01-07T01:16:21;21.73;;;12.27;;
15082;SDS011;7640;53.116;6.878;2024-01-07T01:18:52;18.73;;;12.13;;
15082;SDS011;7640;53.116;6.878;2024-01-07T01:21:24;16.60;;;10.70;;
15082;SDS011;7640;53.116;6.878;2024-01-07T01:23:52;18.03;;;10.73;;
15082;SDS011;7640;53.116;6.878;2024-01-07T01:26:22;16.50;;;9.77;;
15082;SDS011;7640;53.116;6.878;2024-01-07T01:28:50;18.03;;;10.73;;
15082;SDS011;7640;53.116;6.878;2024-01-07T01:31:19;18.50;;;10.30;;
15082;SDS011;7640;53.116;6.878;2024-01-07T01:33:47;21.87;;;11.43;;
15082;SDS011;7640;53.116;6.878;2024-01-07T01:36:18;18.50;;;10.37;;
15082;SDS011;7640;53.116;6.878;2024-01-07T01:38:46;17.03;;;10.83;;
15082;SDS011;7640;53.116;6.878;2024-01-07T01:41:15;18.00;;;10.60;;
15082;SDS011;7640;53.116;6.878;2024-01-07T01:43:44;16.90;;;10.17;;
15082;SDS011;7640;53.116;6.878;2024-01-07T01:46:13;16.57;;;9.90;;
15082;SDS011;7640;53.116;6.878;2024-01-07T01:48:42;17.33;;;9.70;;
15082;SDS011;7640;53.116;6.878;2024-01-07T01:51:11;17.57;;;10.13;;
15082;SDS011;7640;53.116;6.878;2024-01-07T01:53:41;15.27;;;9.73;;
15082;SDS011;7640;53.116;6.878;2024-01-07T01:56:11;13.57;;;9.13;;
15082;SDS011;7640;53.116;6.878;2024-01-07T01:58:40;15.43;;;8.87;;
15082;SDS011;7640;53.116;6.878;2024-01-07T02:01:10;13.77;;;8.53;;
15082;SDS011;7640;53.116;6.878;2024-01-07T02:03:39;16.50;;;8.80;;
15082;SDS011;7640;53.116;6.878;2024-01-07T02:06:08;12.83;;;9.03;;
15082;SDS011;7640;53.116;6.878;2024-01-07T02:08:38;15.80;;;9.20;;
15082;SDS011;7640;53.116;6.878;2024-01-07T02:11:16;17.97;;;8.40;;
15082;SDS011;7640;53.116;6.878;2024-01-07T02:13:48;11.73;;;8.03;;
15082;SDS011;7640;53.116;6.878;2024-01-07T02:16:17;12.57;;;7.33;;
15082;SDS011;7640;53.116;6.878;2024-01-07T02:18:46;14.40;;;8.07;;
15082;SDS011;7640;53.116;6.878;2024-01-07T02:21:15;12.97;;;7.53;;
15082;SDS011;7640;53.116;6.878;2024-01-07T02:23:45;13.47;;;8.00;;
15082;SDS011;7640;53.116;6.878;2024-01-07T02:26:16;13.47;;;7.73;;
15082;SDS011;7640;53.116;6.878;2024-01-07T02:28:45;13.13;;;8.30;;
15082;SDS011;7640;53.116;6.878;2024-01-07T02:31:14;12.33;;;7.30;;
15082;SDS011;7640;53.116;6.878;2024-01-07T02:33:43;11.63;;;7.33;;
15082;SDS011;7640;53.116;6.878;2024-01-07T02:36:12;11.37;;;7.33;;
15082;SDS011;7640;53.116;6.878;2024-01-07T02:38:43;10.67;;;7.10;;
15082;SDS011;7640;53.116;6.878;2024-01-07T02:41:12;10.70;;;7.30;;
15082;SDS011;7640;53.116;6.878;2024-01-07T02:43:42;11.33;;;7.27;;
15082;SDS011;7640;53.116;6.878;2024-01-07T02:46:11;15.20;;;8.10;;
15082;SDS011;7640;53.116;6.878;2024-01-07T02:48:40;14.40;;;7.67;;
15082;SDS011;7640;53.116;6.878;2024-01-07T02:51:08;11.80;;;7.10;;
15082;SDS011;7640;53.116;6.878;2024-01-07T02:53:37;12.87;;;7.50;;
15082;SDS011;7640;53.116;6.878;2024-01-07T02:56:06;11.30;;;7.60;;
15082;SDS011;7640;53.116;6.878;2024-01-07T02:58:35;12.33;;;7.67;;
15082;SDS011;7640;53.116;6.878;2024-01-07T03:01:09;14.10;;;8.03;;
15082;SDS011;7640;53.116;6.878;2024-01-07T03:03:38;11.40;;;6.90;;
15082;SDS011;7640;53.116;6.878;2024-01-07T03:06:07;11.53;;;6.87;;
15082;SDS011;7640;53.116;6.878;2024-01-07T03:08:36;10.57;;;7.30;;
15082;SDS011;7640;53.116;6.878;2024-01-07T03:11:05;11.17;;;7.17;;
15082;SDS011;7640;53.116;6.878;2024-01-07T03:13:34;13.60;;;7.53;;
15082;SDS011;7640;53.116;6.878;2024-01-07T03:16:03;10.70;;;6.93;;
15082;SDS011;7640;53.116;6.878;2024-01-07T03:18:35;10.97;;;6.97;;
15082;SDS011;7640;53.116;6.878;2024-01-07T03:21:04;11.03;;;6.57;;
15082;SDS011;7640;53.116;6.878;2024-01-07T03:23:32;10.10;;;6.40;;
15082;SDS011;7640;53.116;6.878;2024-01-07T03:26:01;9.37;;;6.30;;
15082;SDS011;7640;53.116;6.878;2024-01-07T03:28:30;9.03;;;6.50;;
15082;SDS011;7640;53.116;6.878;2024-01-07T03:30:58;12.17;;;6.63;;
15082;SDS011;7640;53.116;6.878;2024-01-07T03:33:32;8.43;;;6.20;;
15082;SDS011;7640;53.116;6.878;2024-01-07T03:36:02;9.17;;;6.37;;
15082;SDS011;7640;53.116;6.878;2024-01-07T03:38:36;9.73;;;5.97;;
15082;SDS011;7640;53.116;6.878;2024-01-07T03:41:05;9.90;;;5.90;;
15082;SDS011;7640;53.116;6.878;2024-01-07T03:43:34;8.07;;;5.83;;
15082;SDS011;7640;53.116;6.878;2024-01-07T03:46:03;8.13;;;5.67;;
15082;SDS011;7640;53.116;6.878;2024-01-07T03:48:32;9.47;;;6.00;;
15082;SDS011;7640;53.116;6.878;2024-01-07T03:51:02;8.00;;;5.47;;
15082;SDS011;7640;53.116;6.878;2024-01-07T03:53:32;10.17;;;5.87;;
15082;SDS011;7640;53.116;6.878;2024-01-07T03:56:01;8.40;;;5.47;;
15082;SDS011;7640;53.116;6.878;2024-01-07T03:58:30;7.73;;;5.80;;
15082;SDS011;7640;53.116;6.878;2024-01-07T04:01:01;7.77;;;5.73;;
15082;SDS011;7640;53.116;6.878;2024-01-07T04:03:31;9.83;;;6.23;;
15082;SDS011;7640;53.116;6.878;2024-01-07T04:05:59;6.93;;;5.17;;
15082;SDS011;7640;53.116;6.878;2024-01-07T04:08:29;7.97;;;4.90;;
15082;SDS011;7640;53.116;6.878;2024-01-07T04:10:58;8.40;;;4.93;;
15082;SDS011;7640;53.116;6.878;2024-01-07T04:13:29;8.97;;;5.03;;
15082;SDS011;7640;53.116;6.878;2024-01-07T04:15:58;8.20;;;4.73;;
15082;SDS011;7640;53.116;6.878;2024-01-07T04:18:27;7.13;;;5.20;;
15082;SDS011;7640;53.116;6.878;2024-01-07T04:20:55;5.50;;;4.17;;
15082;SDS011;7640;53.116;6.878;2024-01-07T04:23:25;6.33;;;4.60;;
15082;SDS011;7640;53.116;6.878;2024-01-07T04:25:56;7.07;;;3.87;;
15082;SDS011;7640;53.116;6.878;2024-01-07T04:28:25;6.90;;;4.17;;
15082;SDS011;7640;53.116;6.878;2024-01-07T04:30:54;5.37;;;3.97;;
15082;SDS011;7640;53.116;6.878;2024-01-07T04:33:23;6.23;;;4.50;;
15082;SDS011;7640;53.116;6.878;2024-01-07T04:35:52;6.00;;;4.00;;
15082;SDS011;7640;53.116;6.878;2024-01-07T04:38:24;4.23;;;3.70;;
15082;SDS011;7640;53.116;6.878;2024-01-07T04:40:52;6.90;;;4.13;;
15082;SDS011;7640;53.116;6.878;2024-01-07T04:43:23;6.20;;;4.00;;
15082;SDS011;7640;53.116;6.878;2024-01-07T04:45:52;5.60;;;3.90;;
15082;SDS011;7640;53.116;6.878;2024-01-07T04:48:21;6.53;;;4.37;;
15082;SDS011;7640;53.116;6.878;2024-01-07T04:50:49;8.60;;;4.10;;
15082;SDS011;7640;53.116;6.878;2024-01-07T04:53:18;4.90;;;3.90;;
15082;SDS011;7640;53.116;6.878;2024-01-07T04:55:47;5.70;;;3.83;;
15082;SDS011;7640;53.116;6.878;2024-01-07T04:58:16;4.47;;;4.03;;
15082;SDS011;7640;53.116;6.878;2024-01-07T05:00:46;4.67;;;3.23;;
15082;SDS011;7640;53.116;6.878;2024-01-07T05:03:16;4.53;;;2.90;;
15082;SDS011;7640;53.116;6.878;2024-01-07T05:05:45;4.43;;;3.40;;
15082;SDS011;7640;53.116;6.878;2024-01-07T05:08:14;4.53;;;2.77;;
15082;SDS011;7640;53.116;6.878;2024-01-07T05:10:43;6.17;;;3.80;;
15082;SDS011;7640;53.116;6.878;2024-01-07T05:13:11;5.40;;;3.03;;
15082;SDS011;7640;53.116;6.878;2024-01-07T05:15:40;9.20;;;3.20;;
15082;SDS011;7640;53.116;6.878;2024-01-07T05:18:10;4.43;;;2.87;;
15082;SDS011;7640;53.116;6.878;2024-01-07T05:20:42;5.60;;;2.90;;
15082;SDS011;7640;53.116;6.878;2024-01-07T05:23:12;4.80;;;2.77;;
15082;SDS011;7640;53.116;6.878;2024-01-07T05:25:41;6.33;;;3.30;;
15082;SDS011;7640;53.116;6.878;2024-01-07T05:28:14;4.00;;;2.63;;
15082;SDS011;7640;53.116;6.878;2024-01-07T05:30:45;4.67;;;2.63;;
15082;SDS011;7640;53.116;6.878;2024-01-07T05:33:16;3.67;;;2.70;;
15082;SDS011;7640;53.116;6.878;2024-01-07T05:35:45;3.50;;;2.90;;
15082;SDS011;7640;53.116;6.878;2024-01-07T05:38:14;3.83;;;3.00;;
15082;SDS011;7640;53.116;6.878;2024-01-07T05:40:43;3.77;;;3.10;;
15082;SDS011;7640;53.116;6.878;2024-01-07T05:43:12;3.87;;;2.87;;
15082;SDS011;7640;53.116;6.878;2024-01-07T05:45:41;5.87;;;3.47;;
15082;SDS011;7640;53.116;6.878;2024-01-07T05:48:10;6.47;;;2.90;;
15082;SDS011;7640;53.116;6.878;2024-01-07T05:50:40;5.43;;;3.07;;
15082;SDS011;7640;53.116;6.878;2024-01-07T05:53:09;5.13;;;3.17;;
15082;SDS011;7640;53.116;6.878;2024-01-07T05:55:38;3.50;;;2.83;;
15082;SDS011;7640;53.116;6.878;2024-01-07T05:58:06;5.97;;;3.07;;
15082;SDS011;7640;53.116;6.878;2024-01-07T06:00:35;4.67;;;3.03;;
15082;SDS011;7640;53.116;6.878;2024-01-07T06:03:04;4.23;;;2.80;;
15082;SDS011;7640;53.116;6.878;2024-01-07T06:05:33;4.80;;;2.60;;
15082;SDS011;7640;53.116;6.878;2024-01-07T06:08:03;3.80;;;2.73;;
15082;SDS011;7640;53.116;6.878;2024-01-07T06:10:33;3.53;;;2.57;;
15082;SDS011;7640;53.116;6.878;2024-01-07T06:13:02;4.17;;;2.63;;
15082;SDS011;7640;53.116;6.878;2024-01-07T06:15:31;3.17;;;2.77;;
15082;SDS011;7640;53.116;6.878;2024-01-07T06:17:59;4.87;;;2.97;;
15082;SDS011;7640;53.116;6.878;2024-01-07T06:20:28;4.57;;;3.00;;
15082;SDS011;7640;53.116;6.878;2024-01-07T06:22:57;4.80;;;3.43;;
15082;SDS011;7640;53.116;6.878;2024-01-07T06:25:27;4.10;;;2.80;;
15082;SDS011;7640;53.116;6.878;2024-01-07T06:27:56;3.37;;;2.83;;
15082;SDS011;7640;53.116;6.878;2024-01-07T06:30:25;4.47;;;2.70;;
15082;SDS011;7640;53.116;6.878;2024-01-07T06:32:53;3.60;;;2.63;;
15082;SDS011;7640;53.116;6.878;2024-01-07T06:35:23;4.10;;;2.40;;
15082;SDS011;7640;53.116;6.878;2024-01-07T06:37:51;4.50;;;2.53;;
15082;SDS011;7640;53.116;6.878;2024-01-07T06:40:20;3.63;;;2.70;;
15082;SDS011;7640;53.116;6.878;2024-01-07T06:42:50;4.73;;;2.80;;
15082;SDS011;7640;53.116;6.878;2024-01-07T06:45:19;4.43;;;2.53;;
15082;SDS011;7640;53.116;6.878;2024-01-07T06:47:48;4.47;;;2.90;;
15082;SDS011;7640;53.116;6.878;2024-01-07T06:50:17;6.10;;;2.70;;
15082;SDS011;7640;53.116;6.878;2024-01-07T06:52:46;3.53;;;2.30;;
15082;SDS011;7640;53.116;6.878;2024-01-07T06:55:15;4.17;;;2.70;;
15082;SDS011;7640;53.116;6.878;2024-01-07T06:57:44;3.20;;;2.67;;
15082;SDS011;7640;53.116;6.878;2024-01-07T07:00:15;3.53;;;2.70;;
15082;SDS011;7640;53.116;6.878;2024-01-07T07:02:44;4.93;;;2.87;;
15082;SDS011;7640;53.116;6.878;2024-01-07T07:05:13;5.03;;;3.10;;
15082;SDS011;7640;53.116;6.878;2024-01-07T07:07:43;3.63;;;2.80;;
15082;SDS011;7640;53.116;6.878;2024-01-07T07:10:11;4.33;;;2.50;;
15082;SDS011;7640;53.116;6.878;2024-01-07T07:12:41;4.93;;;2.80;;
15082;SDS011;7640;53.116;6.878;2024-01-07T07:15:09;3.73;;;2.63;;
15082;SDS011;7640;53.116;6.878;2024-01-07T07:17:39;5.07;;;2.80;;
15082;SDS011;7640;53.116;6.878;2024-01-07T07:20:08;3.23;;;2.40;;
15082;SDS011;7640;53.116;6.878;2024-01-07T07:22:38;4.63;;;2.43;;
15082;SDS011;7640;53.116;6.878;2024-01-07T07:25:07;3.27;;;2.60;;
15082;SDS011;7640;53.116;6.878;2024-01-07T07:27:36;3.57;;;2.33;;
15082;SDS011;7640;53.116;6.878;2024-01-07T07:30:05;2.70;;;2.33;;
15082;SDS011;7640;53.116;6.878;2024-01-07T07:32:35;4.20;;;2.40;;
15082;SDS011;7640;53.116;6.878;2024-01-07T07:35:08;4.57;;;3.17;;
15082;SDS011;7640;53.116;6.878;2024-01-07T07:37:37;4.07;;;2.43;;
15082;SDS011;7640;53.116;6.878;2024-01-07T07:40:06;3.83;;;2.43;;
15082;SDS011;7640;53.116;6.878;2024-01-07T07:42:35;3.83;;;2.20;;
15082;SDS011;7640;53.116;6.878;2024-01-07T07:45:04;5.33;;;2.77;;
15082;SDS011;7640;53.116;6.878;2024-01-07T07:47:36;3.17;;;2.60;;
15082;SDS011;7640;53.116;6.878;2024-01-07T07:50:08;2.93;;;2.50;;
15082;SDS011;7640;53.116;6.878;2024-01-07T07:52:38;5.93;;;3.27;;
15082;SDS011;7640;53.116;6.878;2024-01-07T07:55:06;4.43;;;2.73;;
15082;SDS011;7640;53.116;6.878;2024-01-07T07:57:36;4.17;;;2.90;;
15082;SDS011;7640;53.116;6.878;2024-01-07T08:00:06;3.87;;;2.80;;
15082;SDS011;7640;53.116;6.878;2024-01-07T08:02:39;4.23;;;3.00;;
15082;SDS011;7640;53.116;6.878;2024-01-07T08:05:09;3.53;;;2.93;;
15082;SDS011;7640;53.116;6.878;2024-01-07T08:07:38;3.40;;;2.80;;
15082;SDS011;7640;53.116;6.878;2024-01-07T08:10:06;4.73;;;3.10;;
15082;SDS011;7640;53.116;6.878;2024-01-07T08:12:36;3.77;;;2.80;;
15082;SDS011;7640;53.116;6.878;2024-01-07T08:15:05;4.87;;;3.13;;
15082;SDS011;7640;53.116;6.878;2024-01-07T08:17:36;3.40;;;2.80;;
15082;SDS011;7640;53.116;6.878;2024-01-07T08:20:05;4.80;;;2.97;;
15082;SDS011;7640;53.116;6.878;2024-01-07T08:22:37;4.27;;;2.83;;
15082;SDS011;7640;53.116;6.878;2024-01-07T08:25:06;3.43;;;2.70;;
15082;SDS011;7640;53.116;6.878;2024-01-07T08:27:36;3.20;;;2.73;;
15082;SDS011;7640;53.116;6.878;2024-01-07T08:30:05;3.83;;;2.73;;
15082;SDS011;7640;53.116;6.878;2024-01-07T08:32:35;4.70;;;3.27;;
15082;SDS011;7640;53.116;6.878;2024-01-07T08:35:04;4.87;;;3.00;;
15082;SDS011;7640;53.116;6.878;2024-01-07T08:37:35;6.37;;;3.27;;
15082;SDS011;7640;53.116;6.878;2024-01-07T08:40:04;4.70;;;3.20;;
15082;SDS011;7640;53.116;6.878;2024-01-07T08:42:36;5.80;;;3.67;;
15082;SDS011;7640;53.116;6.878;2024-01-07T08:45:05;3.90;;;3.17;;
15082;SDS011;7640;53.116;6.878;2024-01-07T08:47:37;4.60;;;3.30;;
15082;SDS011;7640;53.116;6.878;2024-01-07T08:50:10;5.13;;;3.20;;
15082;SDS011;7640;53.116;6.878;2024-01-07T08:52:41;6.57;;;3.30;;
15082;SDS011;7640;53.116;6.878;2024-01-07T08:55:10;3.23;;;2.93;;
15082;SDS011;7640;53.116;6.878;2024-01-07T08:57:39;4.87;;;3.20;;
15082;SDS011;7640;53.116;6.878;2024-01-07T09:00:08;6.93;;;3.60;;
15082;SDS011;7640;53.116;6.878;2024-01-07T09:02:38;4.57;;;3.30;;
15082;SDS011;7640;53.116;6.878;2024-01-07T09:05:09;4.47;;;3.30;;
15082;SDS011;7640;53.116;6.878;2024-01-07T09:07:42;4.13;;;3.13;;
15082;SDS011;7640;53.116;6.878;2024-01-07T09:10:10;4.50;;;2.90;;
15082;SDS011;7640;53.116;6.878;2024-01-07T09:12:40;3.93;;;2.97;;
15082;SDS011;7640;53.116;6.878;2024-01-07T09:15:08;6.87;;;3.57;;
15082;SDS011;7640;53.116;6.878;2024-01-07T09:17:37;4.70;;;3.00;;
15082;SDS011;7640;53.116;6.878;2024-01-07T09:20:07;3.63;;;3.00;;
15082;SDS011;7640;53.116;6.878;2024-01-07T09:22:38;3.40;;;2.87;;
15082;SDS011;7640;53.116;6.878;2024-01-07T09:25:10;4.50;;;3.07;;
15082;SDS011;7640;53.116;6.878;2024-01-07T09:27:39;4.40;;;2.90;;
15082;SDS011;7640;53.116;6.878;2024-01-07T09:30:09;4.83;;;2.90;;
15082;SDS011;7640;53.116;6.878;2024-01-07T09:32:41;2.70;;;2.47;;
15082;SDS011;7640;53.116;6.878;2024-01-07T09:35:10;3.23;;;2.50;;
15082;SDS011;7640;53.116;6.878;2024-01-07T09:37:39;3.97;;;2.53;;
15082;SDS011;7640;53.116;6.878;2024-01-07T09:40:09;2.83;;;2.37;;
15082;SDS011;7640;53.116;6.878;2024-01-07T09:42:40;3.23;;;2.13;;
15082;SDS011;7640;53.116;6.878;2024-01-07T09:45:09;4.43;;;2.23;;
15082;SDS011;7640;53.116;6.878;2024-01-07T09:47:41;5.83;;;2.63;;
15082;SDS011;7640;53.116;6.878;2024-01-07T09:50:12;4.67;;;2.53;;
15082;SDS011;7640;53.116;6.878;2024-01-07T09:52:43;3.67;;;2.33;;
15082;SDS011;7640;53.116;6.878;2024-01-07T09:55:16;3.30;;;2.37;;
15082;SDS011;7640;53.116;6.878;2024-01-07T09:57:54;3.13;;;2.73;;
15082;SDS011;7640;53.116;6.878;2024-01-07T10:00:23;4.60;;;2.43;;
15082;SDS011;7640;53.116;6.878;2024-01-07T10:02:55;10.20;;;4.20;;
15082;SDS011;7640;53.116;6.878;2024-01-07T10:05:24;6.40;;;3.30;;
15082;SDS011;7640;53.116;6.878;2024-01-07T10:07:53;4.13;;;2.80;;
15082;SDS011;7640;53.116;6.878;2024-01-07T10:10:25;2.83;;;2.60;;
15082;SDS011;7640;53.116;6.878;2024-01-07T10:12:54;5.67;;;2.90;;
15082;SDS011;7640;53.116;6.878;2024-01-07T10:15:23;3.80;;;2.97;;
15082;SDS011;7640;53.116;6.878;2024-01-07T10:17:54;3.83;;;3.00;;
15082;SDS011;7640;53.116;6.878;2024-01-07T10:20:23;5.30;;;3.40;;
15082;SDS011;7640;53.116;6.878;2024-01-07T10:22:51;4.10;;;3.30;;
15082;SDS011;7640;53.116;6.878;2024-01-07T10:25:20;8.73;;;3.60;;
15082;SDS011;7640;53.116;6.878;2024-01-07T10:27:50;3.30;;;3.00;;
15082;SDS011;7640;53.116;6.878;2024-01-07T10:30:19;3.93;;;3.03;;
15082;SDS011;7640;53.116;6.878;2024-01-07T10:32:48;5.07;;;2.93;;
15082;SDS011;7640;53.116;6.878;2024-01-07T10:35:17;5.67;;;3.10;;
15082;SDS011;7640;53.116;6.878;2024-01-07T10:37:51;3.90;;;3.30;;
15082;SDS011;7640;53.116;6.878;2024-01-07T10:40:20;5.03;;;3.00;;
15082;SDS011;7640;53.116;6.878;2024-01-07T10:42:49;5.13;;;3.10;;
15082;SDS011;7640;53.116;6.878;2024-01-07T10:45:19;3.73;;;2.47;;
15082;SDS011;7640;53.116;6.878;2024-01-07T10:47:48;3.27;;;2.67;;
15082;SDS011;7640;53.116;6.878;2024-01-07T10:50:18;4.00;;;3.00;;
15082;SDS011;7640;53.116;6.878;2024-01-07T10:52:50;4.23;;;3.00;;
15082;SDS011;7640;53.116;6.878;2024-01-07T10:55:26;5.10;;;2.90;;
15082;SDS011;7640;53.116;6.878;2024-01-07T10:57:59;5.00;;;3.20;;
15082;SDS011;7640;53.116;6.878;2024-01-07T11:00:28;3.93;;;2.90;;
15082;SDS011;7640;53.116;6.878;2024-01-07T11:03:00;5.93;;;3.23;;
15082;SDS011;7640;53.116;6.878;2024-01-07T11:05:37;3.97;;;3.10;;
15082;SDS011;7640;53.116;6.878;2024-01-07T11:08:15;6.27;;;2.87;;
15082;SDS011;7640;53.116;6.878;2024-01-07T11:10:53;5.73;;;3.13;;
15082;SDS011;7640;53.116;6.878;2024-01-07T11:13:35;4.30;;;2.80;;
15082;SDS011;7640;53.116;6.878;2024-01-07T11:16:05;4.50;;;3.10;;
15082;SDS011;7640;53.116;6.878;2024-01-07T11:18:39;5.30;;;3.17;;
15082;SDS011;7640;53.116;6.878;2024-01-07T11:21:20;4.23;;;3.37;;
15082;SDS011;7640;53.116;6.878;2024-01-07T11:23:51;7.20;;;4.17;;
15082;SDS011;7640;53.116;6.878;2024-01-07T11:26:20;6.97;;;4.00;;
15082;SDS011;7640;53.116;6.878;2024-01-07T11:28:51;7.97;;;4.13;;
15082;SDS011;7640;53.116;6.878;2024-01-07T11:34:11;7.80;;;4.27;;
15082;SDS011;7640;53.116;6.878;2024-01-07T11:37:07;11.27;;;5.73;;
15082;SDS011;7640;53.116;6.878;2024-01-07T11:39:41;10.23;;;4.90;;
15082;SDS011;7640;53.116;6.878;2024-01-07T11:42:11;8.57;;;5.07;;
15082;SDS011;7640;53.116;6.878;2024-01-07T11:44:52;7.73;;;5.20;;
15082;SDS011;7640;53.116;6.878;2024-01-07T11:47:22;8.27;;;5.50;;
15082;SDS011;7640;53.116;6.878;2024-01-07T11:49:54;9.47;;;5.43;;
15082;SDS011;7640;53.116;6.878;2024-01-07T11:52:23;7.57;;;5.20;;
15082;SDS011;7640;53.116;6.878;2024-01-07T11:54:53;8.37;;;6.00;;
15082;SDS011;7640;53.116;6.878;2024-01-07T11:57:22;10.20;;;5.37;;
15082;SDS011;7640;53.116;6.878;2024-01-07T11:59:52;10.07;;;5.60;;
15082;SDS011;7640;53.116;6.878;2024-01-07T12:02:21;8.77;;;5.47;;
15082;SDS011;7640;53.116;6.878;2024-01-07T12:04:52;9.37;;;5.27;;
15082;SDS011;7640;53.116;6.878;2024-01-07T12:07:21;8.17;;;5.47;;
15082;SDS011;7640;53.116;6.878;2024-01-07T12:09:54;8.03;;;5.10;;
15082;SDS011;7640;53.116;6.878;2024-01-07T12:12:24;8.30;;;4.70;;
15082;SDS011;7640;53.116;6.878;2024-01-07T12:14:55;7.73;;;5.07;;
15082;SDS011;7640;53.116;6.878;2024-01-07T12:17:25;7.80;;;4.67;;
15082;SDS011;7640;53.116;6.878;2024-01-07T12:19:55;8.77;;;5.00;;
15082;SDS011;7640;53.116;6.878;2024-01-07T12:22:26;7.50;;;4.80;;
15082;SDS011;7640;53.116;6.878;2024-01-07T12:25:01;7.80;;;4.83;;
15082;SDS011;7640;53.116;6.878;2024-01-07T12:27:30;10.30;;;5.60;;
15082;SDS011;7640;53.116;6.878;2024-01-07T12:30:02;9.53;;;5.30;;
15082;SDS011;7640;53.116;6.878;2024-01-07T12:32:32;11.20;;;5.87;;
15082;SDS011;7640;53.116;6.878;2024-01-07T12:35:01;10.37;;;5.13;;
15082;SDS011;7640;53.116;6.878;2024-01-07T12:37:30;8.13;;;5.43;;
15082;SDS011;7640;53.116;6.878;2024-01-07T12:39:59;10.07;;;5.40;;
15082;SDS011;7640;53.116;6.878;2024-01-07T12:42:28;9.53;;;5.60;;
15082;SDS011;7640;53.116;6.878;2024-01-07T12:44:57;10.77;;;5.63;;
15082;SDS011;7640;53.116;6.878;2024-01-07T12:47:26;11.67;;;5.50;;
15082;SDS011;7640;53.116;6.878;2024-01-07T12:49:54;9.10;;;5.00;;
15082;SDS011;7640;53.116;6.878;2024-01-07T12:52:23;7.87;;;5.17;;
15082;SDS011;7640;53.116;6.878;2024-01-07T12:54:53;8.73;;;5.10;;
15082;SDS011;7640;53.116;6.878;2024-01-07T12:57:23;8.30;;;5.30;;
15082;SDS011;7640;53.116;6.878;2024-01-07T12:59:52;10.80;;;4.97;;
15082;SDS011;7640;53.116;6.878;2024-01-07T13:02:20;8.07;;;5.57;;
15082;SDS011;7640;53.116;6.878;2024-01-07T13:04:51;7.20;;;5.37;;
15082;SDS011;7640;53.116;6.878;2024-01-07T13:07:20;7.20;;;5.57;;
15082;SDS011;7640;53.116;6.878;2024-01-07T13:09:51;10.03;;;4.97;;
15082;SDS011;7640;53.116;6.878;2024-01-07T13:12:19;8.93;;;5.93;;
15082;SDS011;7640;53.116;6.878;2024-01-07T13:15:02;9.03;;;5.50;;
15082;SDS011;7640;53.116;6.878;2024-01-07T13:17:31;8.47;;;5.40;;
15082;SDS011;7640;53.116;6.878;2024-01-07T13:20:01;8.73;;;5.50;;
15082;SDS011;7640;53.116;6.878;2024-01-07T13:22:33;10.40;;;5.60;;
15082;SDS011;7640;53.116;6.878;2024-01-07T13:25:02;11.60;;;5.80;;
15082;SDS011;7640;53.116;6.878;2024-01-07T13:27:31;6.87;;;5.53;;
15082;SDS011;7640;53.116;6.878;2024-01-07T13:30:03;10.90;;;5.30;;
15082;SDS011;7640;53.116;6.878;2024-01-07T13:32:34;7.90;;;5.60;;
15082;SDS011;7640;53.116;6.878;2024-01-07T13:35:06;10.17;;;5.77;;
15082;SDS011;7640;53.116;6.878;2024-01-07T13:37:37;7.57;;;5.13;;
15082;SDS011;7640;53.116;6.878;2024-01-07T13:40:08;7.20;;;4.87;;
15082;SDS011;7640;53.116;6.878;2024-01-07T13:42:38;7.47;;;4.67;;
15082;SDS011;7640;53.116;6.878;2024-01-07T13:45:07;7.57;;;5.03;;
15082;SDS011;7640;53.116;6.878;2024-01-07T13:47:36;8.40;;;5.27;;
15082;SDS011;7640;53.116;6.878;2024-01-07T13:50:07;8.13;;;5.27;;
15082;SDS011;7640;53.116;6.878;2024-01-07T13:52:37;9.23;;;5.47;;
15082;SDS011;7640;53.116;6.878;2024-01-07T13:55:06;10.23;;;5.37;;
15082;SDS011;7640;53.116;6.878;2024-01-07T13:57:37;7.73;;;5.40;;
15082;SDS011;7640;53.116;6.878;2024-01-07T14:00:08;11.90;;;5.47;;
15082;SDS011;7640;53.116;6.878;2024-01-07T14:02:46;9.03;;;5.93;;
15082;SDS011;7640;53.116;6.878;2024-01-07T14:05:29;9.63;;;5.57;;
15082;SDS011;7640;53.116;6.878;2024-01-07T14:08:06;9.13;;;5.37;;
15082;SDS011;7640;53.116;6.878;2024-01-07T14:10:43;7.70;;;5.10;;
15082;SDS011;7640;53.116;6.878;2024-01-07T14:13:12;9.67;;;5.27;;
15082;SDS011;7640;53.116;6.878;2024-01-07T14:15:41;11.33;;;5.10;;
15082;SDS011;7640;53.116;6.878;2024-01-07T14:18:11;7.20;;;5.17;;
15082;SDS011;7640;53.116;6.878;2024-01-07T14:20:45;6.77;;;5.03;;
15082;SDS011;7640;53.116;6.878;2024-01-07T14:23:14;9.00;;;4.70;;
15082;SDS011;7640;53.116;6.878;2024-01-07T14:25:44;9.73;;;5.77;;
15082;SDS011;7640;53.116;6.878;2024-01-07T14:28:14;8.93;;;5.23;;
15082;SDS011;7640;53.116;6.878;2024-01-07T14:30:44;9.10;;;4.93;;
15082;SDS011;7640;53.116;6.878;2024-01-07T14:33:13;9.77;;;5.20;;
15082;SDS011;7640;53.116;6.878;2024-01-07T14:35:43;9.80;;;6.00;;
15082;SDS011;7640;53.116;6.878;2024-01-07T14:38:13;10.23;;;5.80;;
15082;SDS011;7640;53.116;6.878;2024-01-07T14:40:42;8.40;;;5.00;;
15082;SDS011;7640;53.116;6.878;2024-01-07T14:43:13;8.33;;;5.37;;
15082;SDS011;7640;53.116;6.878;2024-01-07T14:45:45;9.33;;;5.30;;
15082;SDS011;7640;53.116;6.878;2024-01-07T14:48:14;10.30;;;5.47;;
15082;SDS011;7640;53.116;6.878;2024-01-07T14:50:45;8.63;;;4.83;;
15082;SDS011;7640;53.116;6.878;2024-01-07T14:53:15;7.93;;;5.07;;
15082;SDS011;7640;53.116;6.878;2024-01-07T14:55:46;8.77;;;5.50;;
15082;SDS011;7640;53.116;6.878;2024-01-07T14:58:15;10.93;;;5.77;;
15082;SDS011;7640;53.116;6.878;2024-01-07T15:00:44;11.40;;;5.47;;
15082;SDS011;7640;53.116;6.878;2024-01-07T15:03:14;10.53;;;5.27;;
15082;SDS011;7640;53.116;6.878;2024-01-07T15:05:45;10.13;;;5.43;;
15082;SDS011;7640;53.116;6.878;2024-01-07T15:08:16;8.27;;;4.77;;
15082;SDS011;7640;53.116;6.878;2024-01-07T15:10:45;7.70;;;5.13;;
15082;SDS011;7640;53.116;6.878;2024-01-07T15:13:14;8.63;;;5.13;;
15082;SDS011;7640;53.116;6.878;2024-01-07T15:15:46;11.00;;;5.73;;